WAJJ/DJJ METAR and TAF weather

Enter ICAO airport designator
Station Type Date Time Source
WAJJ METAR 2023/01/29 18:30 UTC NOAA

WAJJ 291830Z 27003KT 8000 FEW011 25/24 Q1007 NOSIG


Station Type Date Time Source
WAJJ Decoded METAR 2023/01/29 18:30 UTC NOAA

Jayapura / Sentani, Indonesia (WAJJ) 02-34S 140-29E 99M
Jan 29, 2023 - 01:30 PM EST / 2023.01.29 1830 UTC
Wind: from the W (270 degrees) at 3 MPH (3 KT):0
Visibility: 4 mile(s):0
Sky conditions: mostly clear
Temperature: 77 F (25 C)
Dew Point: 75 F (24 C)
Relative Humidity: 94%
Pressure (altimeter): 29.74 in. Hg (1007 hPa)
ob: WAJJ 291830Z 27003KT 8000 FEW011 25/24 Q1007 NOSIG
cycle: 18

Station Type Date Time Source
WAJJ TAF 2013/03/11 12:00 UTC NOAA

TAF WAJJ 111100Z 1112/1212 29006KT 5000 HZ SCT016
TEMPO 1113/1121 4000 RA FEW014CB
BECMG 1200/1202 28012KT 9999
TEMPO 1207/1212 6000 RA FEW014CB

Example: see airport list